Time;durP1;ratioP1;P1;durP2;ratioP2;P2;SDS_P1;SDS_P2;PMS_P1;PMS_P2;Temp;Humidity;BMP_temperature;BMP_pressure;BME280_temperature;BME280_humidity;BME280_pressure;Samples;Min_cycle;Max_cycle;Signal;HPM_P1;HPM_P2
2023/12/01 00:12:36;;;;;;;63.20;23.40;;;;;;;-1.00;78.59;99114.80;682539;1263;141510;-80
2023/12/01 00:27:39;;;;;;;65.80;26.80;;;;;;;-1.27;77.74;99111.91;682375;1259;140080;-79
2023/12/01 00:42:42;;;;;;;56.80;22.70;;;;;;;-1.32;76.87;99114.75;682696;1262;139253;-79
2023/12/01 00:57:46;;;;;;;53.20;21.50;;;;;;;-1.31;77.08;99112.31;682578;1262;139519;-81
2023/12/01 01:12:49;;;;;;;56.80;24.30;;;;;;;-0.99;76.64;99117.28;682750;1262;139696;-79
2023/12/01 01:27:53;;;;;;;71.20;24.50;;;;;;;-0.74;75.98;99119.77;682519;1260;139792;-79
2023/12/01 01:42:56;;;;;;;50.60;18.10;;;;;;;-0.52;75.69;99112.44;682551;1263;139736;-79
2023/12/01 01:58:01;;;;;;;41.70;17.20;;;;;;;-0.60;75.44;99107.61;682750;1263;139899;-79
2023/12/01 02:13:10;;;;;;;;;;;;;;;-0.63;76.15;99106.11;682577;1264;140352;-79
2023/12/01 02:28:14;;;;;;;51.10;20.80;;;;;;;-0.44;76.06;99103.59;682589;1263;126017;-80
2023/12/01 02:43:20;;;;;;;60.10;21.70;;;;;;;-0.53;76.00;99103.04;682406;1263;139635;-79
2023/12/01 02:58:24;;;;;;;44.70;18.80;;;;;;;-0.53;76.18;99105.33;682875;1260;140407;-79
2023/12/01 03:13:28;;;;;;;38.60;15.00;;;;;;;-0.56;76.46;99108.91;682512;1263;140040;-79
2023/12/01 03:28:31;;;;;;;40.90;16.90;;;;;;;-0.59;76.61;99104.64;682281;1263;139917;-80
2023/12/01 03:43:35;;;;;;;44.80;15.90;;;;;;;-0.58;76.86;99108.17;682414;1275;139710;-80
2023/12/01 03:58:38;;;;;;;47.10;17.40;;;;;;;-0.56;76.75;99113.05;682487;1260;140007;-80
2023/12/01 04:13:42;;;;;;;42.70;17.90;;;;;;;-0.72;76.42;99109.70;682444;1263;141436;-80
2023/12/01 04:28:45;;;;;;;44.20;15.90;;;;;;;-0.93;76.60;99108.35;682529;1260;139235;-80
2023/12/01 04:43:48;;;;;;;51.90;19.30;;;;;;;-1.26;77.95;99101.40;682606;1262;139197;-80
2023/12/01 04:58:51;;;;;;;52.60;18.40;;;;;;;-1.14;77.97;99097.06;682640;1260;139645;-80
2023/12/01 05:13:55;;;;;;;56.60;21.00;;;;;;;-1.08;77.74;99096.25;682341;1260;139724;-80
2023/12/01 05:28:58;;;;;;;54.10;17.30;;;;;;;-1.32;78.46;99100.48;682483;1264;139598;-80
2023/12/01 05:44:02;;;;;;;56.10;18.90;;;;;;;-1.69;79.52;99107.77;682296;1263;140903;-79
2023/12/01 05:59:05;;;;;;;57.30;19.60;;;;;;;-1.88;80.44;99119.95;682545;1262;140554;-79
2023/12/01 06:14:08;;;;;;;65.10;23.60;;;;;;;-1.96;80.51;99129.82;682239;1263;139733;-80
2023/12/01 06:29:12;;;;;;;108.00;36.30;;;;;;;-2.05;81.45;99139.91;682422;1263;141786;-80
2023/12/01 06:44:16;;;;;;;93.30;34.70;;;;;;;-1.98;81.69;99153.05;682553;1260;140251;-79
2023/12/01 06:59:21;;;;;;;75.20;30.00;;;;;;;-1.82;81.50;99166.94;682533;1263;140207;-79
2023/12/01 07:14:24;;;;;;;77.60;27.30;;;;;;;-1.88;81.78;99163.14;682269;1263;139461;-80
2023/12/01 07:29:27;;;;;;;79.80;27.70;;;;;;;-1.75;81.30;99170.14;682617;1263;139146;-79
2023/12/01 07:44:31;;;;;;;73.80;28.30;;;;;;;-1.61;81.73;99183.73;682559;1263;140524;-80
2023/12/01 07:59:34;;;;;;;77.40;27.20;;;;;;;-1.74;81.79;99187.54;682426;1263;139832;-79
2023/12/01 08:14:37;;;;;;;72.60;26.20;;;;;;;-1.54;81.74;99182.90;682125;1263;139862;-79
2023/12/01 08:29:42;;;;;;;61.70;20.30;;;;;;;-1.24;81.59;99191.64;682479;1262;140552;-80
2023/12/01 08:44:46;;;;;;;76.70;25.60;;;;;;;-0.61;80.57;99213.80;682540;1263;140839;-80
2023/12/01 08:59:49;;;;;;;114.30;35.90;;;;;;;-0.52;79.70;99220.70;682536;1263;140375;-79
2023/12/01 09:14:53;;;;;;;107.50;31.80;;;;;;;-0.75;78.92;99250.89;682275;1260;139980;-80
2023/12/01 09:29:57;;;;;;;110.10;36.50;;;;;;;-1.02;78.85;99253.42;682656;1263;139853;-79
2023/12/01 09:45:02;;;;;;;69.10;25.30;;;;;;;-0.89;80.27;99248.54;682466;1263;139566;-79
2023/12/01 10:00:11;;;;;;;58.10;21.10;;;;;;;-0.70;81.70;99239.95;682483;1260;140318;-79
2023/12/01 10:15:15;;;;;;;64.60;23.10;;;;;;;-0.20;81.82;99230.28;682248;1263;140676;-80
2023/12/01 10:30:18;;;;;;;108.70;31.80;;;;;;;-0.15;82.58;99230.36;682570;1261;140384;-81
2023/12/01 10:45:24;;;;;;;;;;;;;;;0.03;82.59;99233.58;682322;1261;139537;-79
2023/12/01 11:00:31;;;;;;;87.40;34.30;;;;;;;-0.03;83.30;99238.56;682518;1261;125331;-79
2023/12/01 11:15:37;;;;;;;69.00;23.40;;;;;;;0.29;82.79;99235.10;682426;1260;139296;-81
2023/12/01 11:31:08;;;;;;;98.10;34.40;;;;;;;0.18;81.78;99240.36;682615;1260;140198;-81
2023/12/01 11:46:12;;;;;;;92.00;34.20;;;;;;;0.42;81.89;99235.11;682393;1260;139912;-82
2023/12/01 12:01:15;;;;;;;147.40;50.10;;;;;;;0.95;81.65;99226.27;682321;1259;140422;-82
2023/12/01 12:16:20;;;;;;;149.80;45.70;;;;;;;0.97;80.34;99235.61;682465;1259;140532;-81
2023/12/01 12:31:26;;;;;;;59.40;21.10;;;;;;;0.65;79.50;99231.96;682370;1261;139613;-80
2023/12/01 12:46:30;;;;;;;208.00;77.00;;;;;;;0.29;80.01;99244.02;682410;1260;139066;-81
2023/12/01 13:01:33;;;;;;;832.90;360.70;;;;;;;0.32;80.55;99251.06;682306;1259;140774;-80
2023/12/01 13:16:52;;;;;;;133.00;54.80;;;;;;;0.36;80.54;99251.67;682431;1260;140196;-80
2023/12/01 13:32:00;;;;;;;115.60;41.40;;;;;;;0.07;81.30;99247.06;682441;1260;140132;-80
2023/12/01 13:47:03;;;;;;;105.80;33.60;;;;;;;-0.04;82.04;99253.42;682665;1262;140352;-81
2023/12/01 14:02:07;;;;;;;95.20;28.30;;;;;;;-0.04;82.08;99255.48;682341;1263;140321;-79
2023/12/01 14:17:11;;;;;;;97.80;33.10;;;;;;;-0.14;82.13;99270.68;682640;1263;140290;-80
2023/12/01 14:32:15;;;;;;;76.20;27.20;;;;;;;-0.34;82.57;99280.29;682448;1260;139678;-80
2023/12/01 14:47:24;;;;;;;104.20;35.80;;;;;;;-0.57;83.37;99300.33;682353;1260;139990;-78
2023/12/01 15:02:31;;;;;;;84.90;27.40;;;;;;;-0.59;83.62;99306.98;682502;1259;140389;-78
2023/12/01 15:17:34;;;;;;;128.50;43.90;;;;;;;-0.70;84.33;99324.10;682670;1263;140794;-79
2023/12/01 15:32:38;;;;;;;73.90;23.00;;;;;;;-0.56;84.73;99343.69;682499;1261;140589;-79
2023/12/01 15:47:41;;;;;;;84.60;29.70;;;;;;;-0.44;85.01;99344.59;682483;1263;139600;-79
2023/12/01 16:02:44;;;;;;;75.60;24.40;;;;;;;-0.28;84.83;99334.39;682314;1260;139484;-80
2023/12/01 16:17:48;;;;;;;80.40;24.70;;;;;;;-0.44;85.87;99335.98;682501;1263;140365;-80
2023/12/01 16:32:53;;;;;;;71.10;27.20;;;;;;;-0.38;86.28;99322.80;682659;1263;139967;-80
2023/12/01 16:47:57;;;;;;;86.10;25.60;;;;;;;-0.19;85.42;99317.55;682654;1263;139769;-79
2023/12/01 17:03:01;;;;;;;106.60;30.70;;;;;;;-0.52;87.28;99311.02;682335;1265;139273;-80
2023/12/01 17:18:04;;;;;;;79.70;27.00;;;;;;;-0.51;87.93;99302.57;682613;1262;140350;-80
2023/12/01 17:33:08;;;;;;;90.80;29.20;;;;;;;-0.41;88.50;99324.00;682375;1260;139869;-80
2023/12/01 17:48:11;;;;;;;141.00;38.20;;;;;;;-0.26;87.75;99354.55;682318;1259;139623;-78
2023/12/01 18:03:15;;;;;;;89.80;27.20;;;;;;;-0.52;89.47;99362.73;682625;1260;141155;-78
2023/12/01 18:18:19;;;;;;;70.00;24.00;;;;;;;-0.66;91.61;99356.64;682507;1261;139309;-78
2023/12/01 18:33:22;;;;;;;79.70;24.80;;;;;;;-0.61;91.99;99375.64;682294;1274;140616;-78
2023/12/01 18:48:26;;;;;;;79.10;27.00;;;;;;;-0.31;90.40;99398.19;682649;1263;140581;-79
2023/12/01 19:03:29;;;;;;;72.40;23.10;;;;;;;-0.33;90.97;99424.05;682271;1263;139336;-78
2023/12/01 19:18:33;;;;;;;85.50;26.40;;;;;;;-0.20;90.72;99416.06;682318;1261;140279;-78
2023/12/01 19:33:37;;;;;;;66.10;24.40;;;;;;;-0.18;90.90;99421.66;681961;1264;140224;-78
2023/12/01 19:48:41;;;;;;;103.90;32.20;;;;;;;0.08;90.35;99431.51;682056;1261;140167;-78
2023/12/01 20:03:44;;;;;;;173.00;54.20;;;;;;;-0.24;91.52;99426.95;682061;1265;139433;-79
2023/12/01 20:18:48;;;;;;;76.10;25.20;;;;;;;-0.34;92.99;99438.20;682420;1260;140625;-79
2023/12/01 20:33:52;;;;;;;92.20;27.60;;;;;;;-0.23;93.44;99419.84;682304;1263;140200;-79
2023/12/01 20:48:55;;;;;;;117.70;38.40;;;;;;;-0.27;93.19;99423.85;682267;1262;140507;-79
2023/12/01 21:03:59;;;;;;;103.30;33.20;;;;;;;-0.25;93.23;99440.60;682288;1263;140243;-77
2023/12/01 21:19:04;;;;;;;65.30;24.50;;;;;;;-0.19;93.16;99449.39;682400;1260;141047;-79
2023/12/01 21:34:08;;;;;;;101.50;33.00;;;;;;;-0.18;92.85;99439.88;682049;1263;139736;-79
2023/12/01 21:49:12;;;;;;;71.90;25.90;;;;;;;0.02;92.69;99443.73;682350;1263;140642;-79
2023/12/01 22:04:15;;;;;;;65.40;24.90;;;;;;;0.04;91.68;99445.31;682521;1263;140952;-79
2023/12/01 22:19:19;;;;;;;67.30;25.80;;;;;;;-0.23;92.96;99458.38;682468;1263;139630;-79
2023/12/01 22:34:22;;;;;;;76.60;26.70;;;;;;;-0.28;93.53;99451.95;682469;1263;139490;-79
2023/12/01 22:49:26;;;;;;;82.30;28.40;;;;;;;-0.22;93.33;99438.69;682016;1264;139546;-80
2023/12/01 23:04:30;;;;;;;90.80;28.70;;;;;;;-0.11;93.10;99445.28;682142;1265;140478;-79
2023/12/01 23:19:35;;;;;;;93.60;30.40;;;;;;;-0.05;93.10;99456.83;682088;1263;139910;-79
2023/12/01 23:34:39;;;;;;;154.10;46.00;;;;;;;-0.06;93.37;99456.54;682189;1264;139625;-77
2023/12/01 23:49:43;;;;;;;130.50;40.40;;;;;;;-0.09;93.41;99453.09;682188;1263;139567;-79
